sensor_id;sensor_type;location;lat;lon;timestamp;P1;durP1;ratioP1;P2;durP2;ratioP2
9115;SDS011;4593;53.652;10.168;2022-09-30T00:00:45;5.67;;;4.00;;
9115;SDS011;4593;53.652;10.168;2022-09-30T00:03:12;6.87;;;4.67;;
9115;SDS011;4593;53.652;10.168;2022-09-30T00:05:38;6.83;;;4.70;;
9115;SDS011;4593;53.652;10.168;2022-09-30T00:08:03;4.93;;;4.20;;
9115;SDS011;4593;53.652;10.168;2022-09-30T00:10:29;4.70;;;4.00;;
9115;SDS011;4593;53.652;10.168;2022-09-30T00:12:55;6.63;;;4.40;;
9115;SDS011;4593;53.652;10.168;2022-09-30T00:15:22;7.17;;;4.90;;
9115;SDS011;4593;53.652;10.168;2022-09-30T00:17:48;7.10;;;4.83;;
9115;SDS011;4593;53.652;10.168;2022-09-30T00:20:14;5.87;;;4.27;;
9115;SDS011;4593;53.652;10.168;2022-09-30T00:22:40;5.53;;;4.33;;
9115;SDS011;4593;53.652;10.168;2022-09-30T00:25:06;5.87;;;4.50;;
9115;SDS011;4593;53.652;10.168;2022-09-30T00:27:32;6.43;;;5.37;;
9115;SDS011;4593;53.652;10.168;2022-09-30T00:29:57;6.00;;;4.63;;
9115;SDS011;4593;53.652;10.168;2022-09-30T00:32:23;4.80;;;4.10;;
9115;SDS011;4593;53.652;10.168;2022-09-30T00:34:49;5.30;;;4.40;;
9115;SDS011;4593;53.652;10.168;2022-09-30T00:37:15;6.63;;;4.77;;
9115;SDS011;4593;53.652;10.168;2022-09-30T00:39:41;6.97;;;4.60;;
9115;SDS011;4593;53.652;10.168;2022-09-30T00:42:12;6.47;;;4.40;;
9115;SDS011;4593;53.652;10.168;2022-09-30T00:49:43;5.50;;;4.00;;
9115;SDS011;4593;53.652;10.168;2022-09-30T00:52:09;6.93;;;4.70;;
9115;SDS011;4593;53.652;10.168;2022-09-30T00:54:35;5.27;;;4.20;;
9115;SDS011;4593;53.652;10.168;2022-09-30T00:57:02;5.03;;;4.50;;
9115;SDS011;4593;53.652;10.168;2022-09-30T00:59:29;5.20;;;4.47;;
9115;SDS011;4593;53.652;10.168;2022-09-30T01:02:01;5.67;;;4.60;;
9115;SDS011;4593;53.652;10.168;2022-09-30T01:04:27;5.63;;;4.80;;
9115;SDS011;4593;53.652;10.168;2022-09-30T01:06:54;6.90;;;4.77;;
9115;SDS011;4593;53.652;10.168;2022-09-30T01:09:20;5.97;;;4.60;;
9115;SDS011;4593;53.652;10.168;2022-09-30T01:11:46;5.73;;;4.50;;
9115;SDS011;4593;53.652;10.168;2022-09-30T01:14:20;7.37;;;4.87;;
9115;SDS011;4593;53.652;10.168;2022-09-30T01:16:53;5.60;;;4.60;;
9115;SDS011;4593;53.652;10.168;2022-09-30T01:22:15;5.90;;;4.30;;
9115;SDS011;4593;53.652;10.168;2022-09-30T01:27:30;6.83;;;5.23;;
9115;SDS011;4593;53.652;10.168;2022-09-30T01:35:37;4.13;;;3.63;;
9115;SDS011;4593;53.652;10.168;2022-09-30T01:38:27;6.23;;;4.00;;
9115;SDS011;4593;53.652;10.168;2022-09-30T01:51:36;5.60;;;5.00;;
9115;SDS011;4593;53.652;10.168;2022-09-30T01:54:16;6.83;;;4.40;;
9115;SDS011;4593;53.652;10.168;2022-09-30T01:56:44;5.93;;;4.37;;
9115;SDS011;4593;53.652;10.168;2022-09-30T01:59:14;6.13;;;4.27;;
9115;SDS011;4593;53.652;10.168;2022-09-30T02:01:54;5.50;;;4.50;;
9115;SDS011;4593;53.652;10.168;2022-09-30T02:04:28;4.93;;;4.43;;
9115;SDS011;4593;53.652;10.168;2022-09-30T02:07:01;5.93;;;4.90;;
9115;SDS011;4593;53.652;10.168;2022-09-30T02:09:35;6.87;;;4.47;;
9115;SDS011;4593;53.652;10.168;2022-09-30T02:12:12;4.93;;;4.13;;
9115;SDS011;4593;53.652;10.168;2022-09-30T02:14:40;5.60;;;4.57;;
9115;SDS011;4593;53.652;10.168;2022-09-30T02:17:18;8.30;;;5.17;;
9115;SDS011;4593;53.652;10.168;2022-09-30T02:19:56;7.87;;;5.63;;
9115;SDS011;4593;53.652;10.168;2022-09-30T02:22:35;6.27;;;4.93;;
9115;SDS011;4593;53.652;10.168;2022-09-30T02:25:09;6.73;;;4.47;;
9115;SDS011;4593;53.652;10.168;2022-09-30T02:27:40;8.37;;;5.87;;
9115;SDS011;4593;53.652;10.168;2022-09-30T02:30:10;7.23;;;5.40;;
9115;SDS011;4593;53.652;10.168;2022-09-30T02:32:38;7.97;;;4.90;;
9115;SDS011;4593;53.652;10.168;2022-09-30T02:35:10;7.80;;;5.73;;
9115;SDS011;4593;53.652;10.168;2022-09-30T02:37:49;8.00;;;5.73;;
9115;SDS011;4593;53.652;10.168;2022-09-30T02:40:28;7.63;;;5.40;;
9115;SDS011;4593;53.652;10.168;2022-09-30T02:43:03;9.37;;;6.00;;
9115;SDS011;4593;53.652;10.168;2022-09-30T02:45:31;9.83;;;6.03;;
9115;SDS011;4593;53.652;10.168;2022-09-30T02:55:35;8.73;;;6.83;;
9115;SDS011;4593;53.652;10.168;2022-09-30T02:58:15;9.53;;;6.63;;
9115;SDS011;4593;53.652;10.168;2022-09-30T03:00:42;11.70;;;6.03;;
9115;SDS011;4593;53.652;10.168;2022-09-30T03:03:14;9.57;;;6.27;;
9115;SDS011;4593;53.652;10.168;2022-09-30T03:05:42;10.23;;;6.23;;
9115;SDS011;4593;53.652;10.168;2022-09-30T03:08:09;6.83;;;5.53;;
9115;SDS011;4593;53.652;10.168;2022-09-30T03:10:35;9.13;;;5.67;;
9115;SDS011;4593;53.652;10.168;2022-09-30T03:23:56;9.17;;;6.10;;
9115;SDS011;4593;53.652;10.168;2022-09-30T03:26:33;9.40;;;6.17;;
9115;SDS011;4593;53.652;10.168;2022-09-30T03:31:52;7.97;;;5.83;;
9115;SDS011;4593;53.652;10.168;2022-09-30T03:34:32;9.77;;;6.10;;
9115;SDS011;4593;53.652;10.168;2022-09-30T03:40:17;7.00;;;5.20;;
9115;SDS011;4593;53.652;10.168;2022-09-30T03:42:24;7.70;;;4.90;;
9115;SDS011;4593;53.652;10.168;2022-09-30T03:47:45;6.37;;;5.17;;
9115;SDS011;4593;53.652;10.168;2022-09-30T03:50:13;7.80;;;6.00;;
9115;SDS011;4593;53.652;10.168;2022-09-30T03:52:40;9.23;;;5.90;;
9115;SDS011;4593;53.652;10.168;2022-09-30T03:55:06;10.33;;;5.93;;
9115;SDS011;4593;53.652;10.168;2022-09-30T03:57:35;8.50;;;6.50;;
9115;SDS011;4593;53.652;10.168;2022-09-30T04:00:01;7.97;;;5.77;;
9115;SDS011;4593;53.652;10.168;2022-09-30T04:02:28;9.03;;;6.60;;
9115;SDS011;4593;53.652;10.168;2022-09-30T04:04:54;9.53;;;5.80;;
9115;SDS011;4593;53.652;10.168;2022-09-30T04:07:20;6.90;;;5.53;;
9115;SDS011;4593;53.652;10.168;2022-09-30T04:09:46;8.67;;;6.10;;
9115;SDS011;4593;53.652;10.168;2022-09-30T04:12:12;10.53;;;6.57;;
9115;SDS011;4593;53.652;10.168;2022-09-30T04:14:38;8.73;;;6.30;;
9115;SDS011;4593;53.652;10.168;2022-09-30T04:17:04;10.10;;;5.77;;
9115;SDS011;4593;53.652;10.168;2022-09-30T04:19:31;10.47;;;7.50;;
9115;SDS011;4593;53.652;10.168;2022-09-30T04:22:02;11.80;;;6.97;;
9115;SDS011;4593;53.652;10.168;2022-09-30T04:24:28;10.10;;;6.53;;
9115;SDS011;4593;53.652;10.168;2022-09-30T04:26:53;12.77;;;6.80;;
9115;SDS011;4593;53.652;10.168;2022-09-30T04:29:19;8.83;;;6.30;;
9115;SDS011;4593;53.652;10.168;2022-09-30T04:31:45;9.13;;;6.67;;
9115;SDS011;4593;53.652;10.168;2022-09-30T04:34:11;9.80;;;6.83;;
9115;SDS011;4593;53.652;10.168;2022-09-30T04:36:37;10.17;;;7.13;;
9115;SDS011;4593;53.652;10.168;2022-09-30T04:39:03;11.83;;;7.43;;
9115;SDS011;4593;53.652;10.168;2022-09-30T04:41:29;9.53;;;7.00;;
9115;SDS011;4593;53.652;10.168;2022-09-30T04:43:56;10.73;;;6.20;;
9115;SDS011;4593;53.652;10.168;2022-09-30T04:46:22;8.53;;;5.47;;
9115;SDS011;4593;53.652;10.168;2022-09-30T04:48:48;9.63;;;7.27;;
9115;SDS011;4593;53.652;10.168;2022-09-30T04:51:14;8.23;;;6.47;;
9115;SDS011;4593;53.652;10.168;2022-09-30T04:53:41;9.23;;;6.47;;
9115;SDS011;4593;53.652;10.168;2022-09-30T04:56:08;9.37;;;6.83;;
9115;SDS011;4593;53.652;10.168;2022-09-30T04:58:34;9.80;;;6.67;;
9115;SDS011;4593;53.652;10.168;2022-09-30T05:01:02;7.33;;;5.90;;
9115;SDS011;4593;53.652;10.168;2022-09-30T05:03:32;9.27;;;6.63;;
9115;SDS011;4593;53.652;10.168;2022-09-30T05:05:59;12.43;;;7.43;;
9115;SDS011;4593;53.652;10.168;2022-09-30T05:08:26;10.57;;;6.47;;
9115;SDS011;4593;53.652;10.168;2022-09-30T05:10:53;8.20;;;6.67;;
9115;SDS011;4593;53.652;10.168;2022-09-30T05:13:21;8.93;;;6.67;;
9115;SDS011;4593;53.652;10.168;2022-09-30T05:15:48;10.43;;;6.80;;
9115;SDS011;4593;53.652;10.168;2022-09-30T05:18:14;7.40;;;6.03;;
9115;SDS011;4593;53.652;10.168;2022-09-30T05:20:40;10.30;;;7.33;;
9115;SDS011;4593;53.652;10.168;2022-09-30T05:23:06;8.10;;;6.33;;
9115;SDS011;4593;53.652;10.168;2022-09-30T05:25:33;9.67;;;6.40;;
9115;SDS011;4593;53.652;10.168;2022-09-30T05:27:59;9.23;;;6.57;;
9115;SDS011;4593;53.652;10.168;2022-09-30T05:30:25;11.07;;;6.30;;
9115;SDS011;4593;53.652;10.168;2022-09-30T05:32:52;8.23;;;5.80;;
9115;SDS011;4593;53.652;10.168;2022-09-30T05:35:18;12.00;;;6.00;;
9115;SDS011;4593;53.652;10.168;2022-09-30T05:37:44;10.17;;;7.50;;
9115;SDS011;4593;53.652;10.168;2022-09-30T05:40:10;8.53;;;6.07;;
9115;SDS011;4593;53.652;10.168;2022-09-30T05:42:36;8.70;;;5.73;;
9115;SDS011;4593;53.652;10.168;2022-09-30T05:45:03;8.80;;;6.10;;
9115;SDS011;4593;53.652;10.168;2022-09-30T05:47:30;8.53;;;5.87;;
9115;SDS011;4593;53.652;10.168;2022-09-30T05:49:56;9.93;;;6.17;;
9115;SDS011;4593;53.652;10.168;2022-09-30T05:52:23;14.80;;;6.97;;
9115;SDS011;4593;53.652;10.168;2022-09-30T05:54:49;9.57;;;6.27;;
9115;SDS011;4593;53.652;10.168;2022-09-30T05:57:15;11.43;;;6.33;;
9115;SDS011;4593;53.652;10.168;2022-09-30T05:59:41;9.77;;;6.73;;
9115;SDS011;4593;53.652;10.168;2022-09-30T06:02:08;8.40;;;6.20;;
9115;SDS011;4593;53.652;10.168;2022-09-30T06:04:34;9.03;;;6.90;;
9115;SDS011;4593;53.652;10.168;2022-09-30T06:07:00;13.83;;;6.57;;
9115;SDS011;4593;53.652;10.168;2022-09-30T06:09:26;10.37;;;7.00;;
9115;SDS011;4593;53.652;10.168;2022-09-30T06:11:52;10.60;;;6.80;;
9115;SDS011;4593;53.652;10.168;2022-09-30T06:14:20;9.33;;;7.00;;
9115;SDS011;4593;53.652;10.168;2022-09-30T06:16:46;11.60;;;8.00;;
9115;SDS011;4593;53.652;10.168;2022-09-30T06:19:12;13.13;;;7.13;;
9115;SDS011;4593;53.652;10.168;2022-09-30T06:21:38;10.37;;;7.10;;
9115;SDS011;4593;53.652;10.168;2022-09-30T06:24:04;13.10;;;7.30;;
9115;SDS011;4593;53.652;10.168;2022-09-30T06:26:33;8.13;;;5.83;;
9115;SDS011;4593;53.652;10.168;2022-09-30T06:28:58;11.50;;;7.70;;
9115;SDS011;4593;53.652;10.168;2022-09-30T06:31:24;10.83;;;7.47;;
9115;SDS011;4593;53.652;10.168;2022-09-30T06:33:53;12.93;;;8.33;;
9115;SDS011;4593;53.652;10.168;2022-09-30T06:36:18;11.07;;;7.20;;
9115;SDS011;4593;53.652;10.168;2022-09-30T06:38:46;11.10;;;7.90;;
9115;SDS011;4593;53.652;10.168;2022-09-30T06:41:15;10.13;;;7.47;;
9115;SDS011;4593;53.652;10.168;2022-09-30T06:43:41;10.13;;;6.97;;
9115;SDS011;4593;53.652;10.168;2022-09-30T06:46:07;14.40;;;7.77;;
9115;SDS011;4593;53.652;10.168;2022-09-30T06:48:33;11.07;;;7.67;;
9115;SDS011;4593;53.652;10.168;2022-09-30T06:50:58;10.40;;;7.80;;
9115;SDS011;4593;53.652;10.168;2022-09-30T06:53:24;9.97;;;7.30;;
9115;SDS011;4593;53.652;10.168;2022-09-30T06:55:55;7.80;;;6.23;;
9115;SDS011;4593;53.652;10.168;2022-09-30T06:58:21;12.10;;;7.40;;
9115;SDS011;4593;53.652;10.168;2022-09-30T07:00:57;9.77;;;7.13;;
9115;SDS011;4593;53.652;10.168;2022-09-30T07:03:26;9.73;;;6.83;;
9115;SDS011;4593;53.652;10.168;2022-09-30T07:05:56;12.40;;;8.13;;
9115;SDS011;4593;53.652;10.168;2022-09-30T07:08:23;10.37;;;7.67;;
9115;SDS011;4593;53.652;10.168;2022-09-30T07:10:50;12.60;;;8.73;;
9115;SDS011;4593;53.652;10.168;2022-09-30T07:13:16;18.20;;;10.33;;
9115;SDS011;4593;53.652;10.168;2022-09-30T07:15:43;14.67;;;8.70;;
9115;SDS011;4593;53.652;10.168;2022-09-30T07:18:09;17.03;;;9.90;;
9115;SDS011;4593;53.652;10.168;2022-09-30T07:20:35;14.50;;;9.10;;
9115;SDS011;4593;53.652;10.168;2022-09-30T07:23:01;11.70;;;7.90;;
9115;SDS011;4593;53.652;10.168;2022-09-30T07:25:27;14.83;;;10.63;;
9115;SDS011;4593;53.652;10.168;2022-09-30T07:27:52;11.90;;;8.33;;
9115;SDS011;4593;53.652;10.168;2022-09-30T07:30:20;13.03;;;7.20;;
9115;SDS011;4593;53.652;10.168;2022-09-30T07:32:46;11.70;;;6.80;;
9115;SDS011;4593;53.652;10.168;2022-09-30T07:35:12;9.87;;;7.40;;
9115;SDS011;4593;53.652;10.168;2022-09-30T07:37:38;9.33;;;7.43;;
9115;SDS011;4593;53.652;10.168;2022-09-30T07:40:05;9.83;;;6.53;;
9115;SDS011;4593;53.652;10.168;2022-09-30T07:42:32;7.20;;;6.03;;
9115;SDS011;4593;53.652;10.168;2022-09-30T07:45:00;7.93;;;6.23;;
9115;SDS011;4593;53.652;10.168;2022-09-30T07:47:26;8.07;;;6.17;;
9115;SDS011;4593;53.652;10.168;2022-09-30T07:49:52;9.77;;;6.77;;
9115;SDS011;4593;53.652;10.168;2022-09-30T07:52:18;11.10;;;7.23;;
9115;SDS011;4593;53.652;10.168;2022-09-30T07:54:44;7.43;;;6.23;;
9115;SDS011;4593;53.652;10.168;2022-09-30T07:57:10;11.10;;;6.50;;
9115;SDS011;4593;53.652;10.168;2022-09-30T07:59:37;8.83;;;6.60;;
9115;SDS011;4593;53.652;10.168;2022-09-30T08:02:04;14.87;;;7.67;;
9115;SDS011;4593;53.652;10.168;2022-09-30T08:04:31;8.97;;;6.77;;
9115;SDS011;4593;53.652;10.168;2022-09-30T08:06:58;11.13;;;7.60;;
9115;SDS011;4593;53.652;10.168;2022-09-30T08:09:25;11.90;;;7.97;;
9115;SDS011;4593;53.652;10.168;2022-09-30T08:11:52;8.30;;;5.90;;
9115;SDS011;4593;53.652;10.168;2022-09-30T08:14:19;10.60;;;6.47;;
9115;SDS011;4593;53.652;10.168;2022-09-30T08:16:45;8.40;;;6.37;;
9115;SDS011;4593;53.652;10.168;2022-09-30T08:19:12;14.17;;;7.70;;
9115;SDS011;4593;53.652;10.168;2022-09-30T08:21:40;10.57;;;7.60;;
9115;SDS011;4593;53.652;10.168;2022-09-30T08:24:06;12.03;;;7.77;;
9115;SDS011;4593;53.652;10.168;2022-09-30T08:26:32;10.77;;;7.33;;
9115;SDS011;4593;53.652;10.168;2022-09-30T08:28:58;13.73;;;7.57;;
9115;SDS011;4593;53.652;10.168;2022-09-30T08:31:25;10.93;;;7.03;;
9115;SDS011;4593;53.652;10.168;2022-09-30T08:33:52;9.67;;;7.10;;
9115;SDS011;4593;53.652;10.168;2022-09-30T08:36:22;11.40;;;7.73;;
9115;SDS011;4593;53.652;10.168;2022-09-30T08:38:49;8.83;;;6.60;;
9115;SDS011;4593;53.652;10.168;2022-09-30T08:46:42;11.97;;;7.57;;
9115;SDS011;4593;53.652;10.168;2022-09-30T08:49:02;11.67;;;7.17;;
9115;SDS011;4593;53.652;10.168;2022-09-30T08:51:36;9.07;;;5.63;;
9115;SDS011;4593;53.652;10.168;2022-09-30T08:54:08;10.47;;;7.00;;
9115;SDS011;4593;53.652;10.168;2022-09-30T08:56:39;8.23;;;5.67;;
9115;SDS011;4593;53.652;10.168;2022-09-30T08:59:24;8.73;;;5.40;;
9115;SDS011;4593;53.652;10.168;2022-09-30T09:04:42;9.63;;;5.80;;
9115;SDS011;4593;53.652;10.168;2022-09-30T09:14:56;5.00;;;4.07;;
9115;SDS011;4593;53.652;10.168;2022-09-30T09:17:53;5.30;;;4.47;;
9115;SDS011;4593;53.652;10.168;2022-09-30T09:20:18;4.90;;;3.97;;
9115;SDS011;4593;53.652;10.168;2022-09-30T09:22:46;5.10;;;4.30;;
9115;SDS011;4593;53.652;10.168;2022-09-30T09:25:15;4.63;;;3.77;;
9115;SDS011;4593;53.652;10.168;2022-09-30T09:30:19;4.20;;;3.60;;
9115;SDS011;4593;53.652;10.168;2022-09-30T09:32:48;4.67;;;3.90;;
9115;SDS011;4593;53.652;10.168;2022-09-30T09:35:18;5.03;;;4.07;;
9115;SDS011;4593;53.652;10.168;2022-09-30T09:38:00;3.50;;;3.20;;
9115;SDS011;4593;53.652;10.168;2022-09-30T09:46:19;4.03;;;3.07;;
9115;SDS011;4593;53.652;10.168;2022-09-30T09:48:47;3.27;;;2.93;;
9115;SDS011;4593;53.652;10.168;2022-09-30T09:51:17;3.17;;;2.70;;
9115;SDS011;4593;53.652;10.168;2022-09-30T09:53:52;3.83;;;2.10;;
9115;SDS011;4593;53.652;10.168;2022-09-30T09:56:24;2.33;;;1.83;;
9115;SDS011;4593;53.652;10.168;2022-09-30T09:59:04;2.00;;;1.87;;
9115;SDS011;4593;53.652;10.168;2022-09-30T10:01:41;2.47;;;2.07;;
9115;SDS011;4593;53.652;10.168;2022-09-30T10:06:41;2.17;;;1.97;;
9115;SDS011;4593;53.652;10.168;2022-09-30T10:09:20;2.90;;;2.13;;
9115;SDS011;4593;53.652;10.168;2022-09-30T10:16:59;2.47;;;1.90;;
9115;SDS011;4593;53.652;10.168;2022-09-30T10:19:26;4.80;;;1.93;;
9115;SDS011;4593;53.652;10.168;2022-09-30T10:24:36;1.97;;;1.80;;
9115;SDS011;4593;53.652;10.168;2022-09-30T10:27:03;2.93;;;2.10;;
9115;SDS011;4593;53.652;10.168;2022-09-30T10:29:33;1.70;;;1.60;;
9115;SDS011;4593;53.652;10.168;2022-09-30T10:32:00;5.10;;;1.77;;
9115;SDS011;4593;53.652;10.168;2022-09-30T10:34:37;1.97;;;1.77;;
9115;SDS011;4593;53.652;10.168;2022-09-30T10:37:15;1.80;;;1.63;;
9115;SDS011;4593;53.652;10.168;2022-09-30T10:39:43;4.33;;;1.70;;
9115;SDS011;4593;53.652;10.168;2022-09-30T10:42:29;2.60;;;1.60;;
9115;SDS011;4593;53.652;10.168;2022-09-30T10:44:57;2.90;;;2.00;;
9115;SDS011;4593;53.652;10.168;2022-09-30T10:47:26;2.90;;;1.93;;
9115;SDS011;4593;53.652;10.168;2022-09-30T10:50:05;1.70;;;1.60;;
9115;SDS011;4593;53.652;10.168;2022-09-30T10:52:40;2.50;;;1.70;;
9115;SDS011;4593;53.652;10.168;2022-09-30T10:57:44;1.93;;;1.73;;
9115;SDS011;4593;53.652;10.168;2022-09-30T11:18:28;1.83;;;1.70;;
9115;SDS011;4593;53.652;10.168;2022-09-30T11:20:56;3.43;;;2.10;;
9115;SDS011;4593;53.652;10.168;2022-09-30T11:25:53;1.77;;;1.67;;
9115;SDS011;4593;53.652;10.168;2022-09-30T11:28:46;2.80;;;1.90;;
9115;SDS011;4593;53.652;10.168;2022-09-30T11:31:26;2.10;;;1.90;;
9115;SDS011;4593;53.652;10.168;2022-09-30T11:41:57;3.33;;;1.97;;
9115;SDS011;4593;53.652;10.168;2022-09-30T11:44:33;2.10;;;1.90;;
9115;SDS011;4593;53.652;10.168;2022-09-30T12:00:24;1.63;;;1.53;;
9115;SDS011;4593;53.652;10.168;2022-09-30T12:02:58;1.80;;;1.70;;
9115;SDS011;4593;53.652;10.168;2022-09-30T12:05:46;2.50;;;1.80;;
9115;SDS011;4593;53.652;10.168;2022-09-30T12:10:41;1.70;;;1.60;;
9115;SDS011;4593;53.652;10.168;2022-09-30T12:13:09;2.23;;;1.70;;
9115;SDS011;4593;53.652;10.168;2022-09-30T12:15:37;1.60;;;1.50;;
9115;SDS011;4593;53.652;10.168;2022-09-30T12:18:08;1.60;;;1.50;;
9115;SDS011;4593;53.652;10.168;2022-09-30T12:20:41;1.50;;;1.40;;
9115;SDS011;4593;53.652;10.168;2022-09-30T12:23:19;2.20;;;1.77;;
9115;SDS011;4593;53.652;10.168;2022-09-30T12:25:58;1.63;;;1.53;;
9115;SDS011;4593;53.652;10.168;2022-09-30T12:28:44;2.50;;;1.70;;
9115;SDS011;4593;53.652;10.168;2022-09-30T12:34:32;1.83;;;1.73;;
9115;SDS011;4593;53.652;10.168;2022-09-30T12:40:19;2.20;;;1.97;;
9115;SDS011;4593;53.652;10.168;2022-09-30T12:48:12;1.70;;;1.60;;
9115;SDS011;4593;53.652;10.168;2022-09-30T12:50:51;2.03;;;1.80;;
9115;SDS011;4593;53.652;10.168;2022-09-30T12:53:23;2.23;;;2.03;;
9115;SDS011;4593;53.652;10.168;2022-09-30T12:56:04;2.40;;;2.20;;
9115;SDS011;4593;53.652;10.168;2022-09-30T12:58:37;2.03;;;1.93;;
9115;SDS011;4593;53.652;10.168;2022-09-30T13:01:22;2.30;;;2.10;;
9115;SDS011;4593;53.652;10.168;2022-09-30T13:06:26;2.40;;;2.10;;
9115;SDS011;4593;53.652;10.168;2022-09-30T13:14:11;3.07;;;2.20;;
9115;SDS011;4593;53.652;10.168;2022-09-30T13:19:24;3.20;;;2.90;;
9115;SDS011;4593;53.652;10.168;2022-09-30T13:38:39;2.60;;;2.37;;
9115;SDS011;4593;53.652;10.168;2022-09-30T13:43:09;2.37;;;2.17;;
9115;SDS011;4593;53.652;10.168;2022-09-30T13:45:37;2.37;;;2.17;;
9115;SDS011;4593;53.652;10.168;2022-09-30T13:48:06;2.40;;;2.20;;
9115;SDS011;4593;53.652;10.168;2022-09-30T13:50:36;3.43;;;2.70;;
9115;SDS011;4593;53.652;10.168;2022-09-30T13:53:33;2.40;;;2.20;;
9115;SDS011;4593;53.652;10.168;2022-09-30T13:55:57;2.53;;;2.33;;
9115;SDS011;4593;53.652;10.168;2022-09-30T14:01:01;3.60;;;2.70;;
9115;SDS011;4593;53.652;10.168;2022-09-30T14:11:46;2.50;;;2.30;;
9115;SDS011;4593;53.652;10.168;2022-09-30T14:21:57;2.50;;;2.30;;
9115;SDS011;4593;53.652;10.168;2022-09-30T14:24:28;2.63;;;2.43;;
9115;SDS011;4593;53.652;10.168;2022-09-30T14:32:24;5.47;;;3.00;;
9115;SDS011;4593;53.652;10.168;2022-09-30T14:34:51;3.83;;;2.50;;
9115;SDS011;4593;53.652;10.168;2022-09-30T14:37:28;2.63;;;2.43;;
9115;SDS011;4593;53.652;10.168;2022-09-30T14:39:54;4.00;;;3.00;;
9115;SDS011;4593;53.652;10.168;2022-09-30T14:42:23;2.77;;;2.53;;
9115;SDS011;4593;53.652;10.168;2022-09-30T14:44:50;2.53;;;2.33;;
9115;SDS011;4593;53.652;10.168;2022-09-30T14:47:18;2.60;;;2.40;;
9115;SDS011;4593;53.652;10.168;2022-09-30T14:49:46;2.97;;;2.73;;
9115;SDS011;4593;53.652;10.168;2022-09-30T14:54:59;2.70;;;2.50;;
9115;SDS011;4593;53.652;10.168;2022-09-30T14:57:25;3.50;;;2.50;;
9115;SDS011;4593;53.652;10.168;2022-09-30T14:59:52;2.67;;;2.30;;
9115;SDS011;4593;53.652;10.168;2022-09-30T15:02:45;4.50;;;2.73;;
9115;SDS011;4593;53.652;10.168;2022-09-30T15:05:12;5.40;;;2.57;;
9115;SDS011;4593;53.652;10.168;2022-09-30T15:07:40;2.83;;;2.43;;
9115;SDS011;4593;53.652;10.168;2022-09-30T15:10:06;3.23;;;2.43;;
9115;SDS011;4593;53.652;10.168;2022-09-30T15:12:32;3.60;;;3.10;;
9115;SDS011;4593;53.652;10.168;2022-09-30T15:15:01;3.40;;;2.70;;
9115;SDS011;4593;53.652;10.168;2022-09-30T15:17:58;6.33;;;3.03;;
9115;SDS011;4593;53.652;10.168;2022-09-30T15:20:30;7.73;;;3.27;;
9115;SDS011;4593;53.652;10.168;2022-09-30T15:23:01;4.17;;;3.00;;
9115;SDS011;4593;53.652;10.168;2022-09-30T15:25:29;3.37;;;3.07;;
9115;SDS011;4593;53.652;10.168;2022-09-30T15:27:55;3.67;;;2.80;;
9115;SDS011;4593;53.652;10.168;2022-09-30T15:30:23;3.10;;;2.87;;
9115;SDS011;4593;53.652;10.168;2022-09-30T15:32:56;2.93;;;2.70;;
9115;SDS011;4593;53.652;10.168;2022-09-30T15:35:22;3.70;;;3.20;;
9115;SDS011;4593;53.652;10.168;2022-09-30T15:37:48;4.13;;;3.07;;
9115;SDS011;4593;53.652;10.168;2022-09-30T15:40:19;5.33;;;3.47;;
9115;SDS011;4593;53.652;10.168;2022-09-30T15:43:06;3.20;;;2.90;;
9115;SDS011;4593;53.652;10.168;2022-09-30T15:45:35;2.70;;;2.50;;
9115;SDS011;4593;53.652;10.168;2022-09-30T15:48:45;3.87;;;3.10;;
9115;SDS011;4593;53.652;10.168;2022-09-30T15:50:53;3.40;;;2.93;;
9115;SDS011;4593;53.652;10.168;2022-09-30T15:53:24;3.20;;;2.90;;
9115;SDS011;4593;53.652;10.168;2022-09-30T15:55:51;5.13;;;3.23;;
9115;SDS011;4593;53.652;10.168;2022-09-30T16:03:53;4.80;;;3.30;;
9115;SDS011;4593;53.652;10.168;2022-09-30T16:06:31;5.83;;;3.77;;
9115;SDS011;4593;53.652;10.168;2022-09-30T16:09:14;3.53;;;2.67;;
9115;SDS011;4593;53.652;10.168;2022-09-30T16:11:43;5.97;;;3.00;;
9115;SDS011;4593;53.652;10.168;2022-09-30T16:14:45;3.10;;;2.80;;
9115;SDS011;4593;53.652;10.168;2022-09-30T16:17:04;5.97;;;3.30;;
9115;SDS011;4593;53.652;10.168;2022-09-30T16:19:31;3.57;;;3.07;;
9115;SDS011;4593;53.652;10.168;2022-09-30T16:21:57;3.90;;;3.50;;
9115;SDS011;4593;53.652;10.168;2022-09-30T16:26:52;4.03;;;2.60;;
9115;SDS011;4593;53.652;10.168;2022-09-30T16:29:37;3.40;;;3.10;;
9115;SDS011;4593;53.652;10.168;2022-09-30T16:32:03;3.03;;;2.73;;
9115;SDS011;4593;53.652;10.168;2022-09-30T16:34:31;3.53;;;2.90;;
9115;SDS011;4593;53.652;10.168;2022-09-30T16:37:08;3.67;;;3.07;;
9115;SDS011;4593;53.652;10.168;2022-09-30T16:39:36;4.47;;;3.17;;
9115;SDS011;4593;53.652;10.168;2022-09-30T16:42:01;4.57;;;2.97;;
9115;SDS011;4593;53.652;10.168;2022-09-30T16:44:28;4.80;;;3.00;;
9115;SDS011;4593;53.652;10.168;2022-09-30T16:46:58;4.83;;;3.00;;
9115;SDS011;4593;53.652;10.168;2022-09-30T16:49:24;2.87;;;2.63;;
9115;SDS011;4593;53.652;10.168;2022-09-30T16:51:50;3.20;;;2.90;;
9115;SDS011;4593;53.652;10.168;2022-09-30T16:54:16;6.57;;;3.43;;
9115;SDS011;4593;53.652;10.168;2022-09-30T16:56:42;4.03;;;3.10;;
9115;SDS011;4593;53.652;10.168;2022-09-30T16:59:11;3.93;;;3.17;;
9115;SDS011;4593;53.652;10.168;2022-09-30T17:01:38;4.50;;;3.23;;
9115;SDS011;4593;53.652;10.168;2022-09-30T17:04:04;4.00;;;2.93;;
9115;SDS011;4593;53.652;10.168;2022-09-30T17:06:30;5.03;;;3.27;;
9115;SDS011;4593;53.652;10.168;2022-09-30T17:08:56;3.77;;;3.43;;
9115;SDS011;4593;53.652;10.168;2022-09-30T17:11:24;3.60;;;3.30;;
9115;SDS011;4593;53.652;10.168;2022-09-30T17:13:55;3.60;;;3.30;;
9115;SDS011;4593;53.652;10.168;2022-09-30T17:16:21;3.80;;;3.40;;
9115;SDS011;4593;53.652;10.168;2022-09-30T17:18:47;3.70;;;3.40;;
9115;SDS011;4593;53.652;10.168;2022-09-30T17:21:20;4.50;;;4.10;;
9115;SDS011;4593;53.652;10.168;2022-09-30T17:23:46;3.70;;;3.40;;
9115;SDS011;4593;53.652;10.168;2022-09-30T17:26:13;4.97;;;3.93;;
9115;SDS011;4593;53.652;10.168;2022-09-30T17:28:39;3.90;;;3.60;;
9115;SDS011;4593;53.652;10.168;2022-09-30T17:31:06;3.83;;;3.30;;
9115;SDS011;4593;53.652;10.168;2022-09-30T17:33:33;4.80;;;4.17;;
9115;SDS011;4593;53.652;10.168;2022-09-30T17:36:01;4.17;;;3.67;;
9115;SDS011;4593;53.652;10.168;2022-09-30T17:38:30;5.73;;;3.77;;
9115;SDS011;4593;53.652;10.168;2022-09-30T17:40:55;5.63;;;4.50;;
9115;SDS011;4593;53.652;10.168;2022-09-30T17:43:40;5.40;;;4.30;;
9115;SDS011;4593;53.652;10.168;2022-09-30T17:46:05;6.73;;;3.50;;
9115;SDS011;4593;53.652;10.168;2022-09-30T17:48:31;4.93;;;4.27;;
9115;SDS011;4593;53.652;10.168;2022-09-30T17:50:57;4.60;;;4.20;;
9115;SDS011;4593;53.652;10.168;2022-09-30T17:53:24;5.20;;;4.03;;
9115;SDS011;4593;53.652;10.168;2022-09-30T17:56:10;4.57;;;3.93;;
9115;SDS011;4593;53.652;10.168;2022-09-30T17:58:41;6.60;;;4.87;;
9115;SDS011;4593;53.652;10.168;2022-09-30T18:01:09;5.00;;;4.03;;
9115;SDS011;4593;53.652;10.168;2022-09-30T18:03:35;4.70;;;4.30;;
9115;SDS011;4593;53.652;10.168;2022-09-30T18:06:01;4.10;;;3.70;;
9115;SDS011;4593;53.652;10.168;2022-09-30T18:08:28;4.93;;;4.43;;
9115;SDS011;4593;53.652;10.168;2022-09-30T18:10:54;5.00;;;4.50;;
9115;SDS011;4593;53.652;10.168;2022-09-30T18:13:21;6.70;;;4.40;;
9115;SDS011;4593;53.652;10.168;2022-09-30T18:15:47;6.03;;;3.80;;
9115;SDS011;4593;53.652;10.168;2022-09-30T18:18:13;4.90;;;4.23;;
9115;SDS011;4593;53.652;10.168;2022-09-30T18:20:47;9.13;;;4.43;;
9115;SDS011;4593;53.652;10.168;2022-09-30T18:23:14;4.57;;;4.07;;
9115;SDS011;4593;53.652;10.168;2022-09-30T18:25:42;5.10;;;4.37;;
9115;SDS011;4593;53.652;10.168;2022-09-30T18:28:13;6.27;;;4.53;;
9115;SDS011;4593;53.652;10.168;2022-09-30T18:30:40;5.20;;;4.23;;
9115;SDS011;4593;53.652;10.168;2022-09-30T18:33:07;5.43;;;4.33;;
9115;SDS011;4593;53.652;10.168;2022-09-30T18:35:34;7.03;;;4.90;;
9115;SDS011;4593;53.652;10.168;2022-09-30T18:38:02;5.10;;;4.60;;
9115;SDS011;4593;53.652;10.168;2022-09-30T18:40:28;6.40;;;4.60;;
9115;SDS011;4593;53.652;10.168;2022-09-30T18:42:56;5.60;;;4.13;;